sensor_id;sensor_type;location;lat;lon;timestamp;P1;durP1;ratioP1;P2;durP2;ratioP2
9848;SDS011;4963;51.444;6.528;2022-11-24T00:01:47;17.77;;;4.23;;
9848;SDS011;4963;51.444;6.528;2022-11-24T00:04:16;15.23;;;3.40;;
9848;SDS011;4963;51.444;6.528;2022-11-24T00:06:42;17.00;;;3.67;;
9848;SDS011;4963;51.444;6.528;2022-11-24T00:09:09;17.37;;;3.70;;
9848;SDS011;4963;51.444;6.528;2022-11-24T00:11:37;13.60;;;3.03;;
9848;SDS011;4963;51.444;6.528;2022-11-24T00:14:04;15.20;;;3.40;;
9848;SDS011;4963;51.444;6.528;2022-11-24T00:16:32;15.47;;;3.50;;
9848;SDS011;4963;51.444;6.528;2022-11-24T00:19:00;15.20;;;3.33;;
9848;SDS011;4963;51.444;6.528;2022-11-24T00:21:30;17.57;;;3.90;;
9848;SDS011;4963;51.444;6.528;2022-11-24T00:23:58;14.67;;;3.43;;
9848;SDS011;4963;51.444;6.528;2022-11-24T00:26:26;16.53;;;4.17;;
9848;SDS011;4963;51.444;6.528;2022-11-24T00:28:58;12.93;;;3.20;;
9848;SDS011;4963;51.444;6.528;2022-11-24T00:31:27;18.37;;;3.90;;
9848;SDS011;4963;51.444;6.528;2022-11-24T00:33:56;17.63;;;3.70;;
9848;SDS011;4963;51.444;6.528;2022-11-24T00:36:26;17.20;;;3.73;;
9848;SDS011;4963;51.444;6.528;2022-11-24T00:38:55;10.33;;;3.67;;
9848;SDS011;4963;51.444;6.528;2022-11-24T00:41:24;17.67;;;4.07;;
9848;SDS011;4963;51.444;6.528;2022-11-24T00:43:52;18.50;;;4.00;;
9848;SDS011;4963;51.444;6.528;2022-11-24T00:46:19;18.33;;;3.30;;
9848;SDS011;4963;51.444;6.528;2022-11-24T00:48:47;18.40;;;3.30;;
9848;SDS011;4963;51.444;6.528;2022-11-24T00:51:14;14.53;;;3.87;;
9848;SDS011;4963;51.444;6.528;2022-11-24T00:53:42;12.77;;;3.47;;
9848;SDS011;4963;51.444;6.528;2022-11-24T00:56:11;13.30;;;3.93;;
9848;SDS011;4963;51.444;6.528;2022-11-24T00:58:38;14.03;;;3.93;;
9848;SDS011;4963;51.444;6.528;2022-11-24T01:01:07;19.70;;;4.67;;
9848;SDS011;4963;51.444;6.528;2022-11-24T01:03:36;15.40;;;3.87;;
9848;SDS011;4963;51.444;6.528;2022-11-24T01:06:03;13.57;;;3.53;;
9848;SDS011;4963;51.444;6.528;2022-11-24T01:08:31;14.17;;;3.30;;
9848;SDS011;4963;51.444;6.528;2022-11-24T01:11:05;11.73;;;3.50;;
9848;SDS011;4963;51.444;6.528;2022-11-24T01:13:34;15.80;;;3.80;;
9848;SDS011;4963;51.444;6.528;2022-11-24T01:16:01;19.03;;;4.13;;
9848;SDS011;4963;51.444;6.528;2022-11-24T01:18:28;11.63;;;3.20;;
9848;SDS011;4963;51.444;6.528;2022-11-24T01:20:55;15.73;;;4.03;;
9848;SDS011;4963;51.444;6.528;2022-11-24T01:23:22;15.73;;;3.97;;
9848;SDS011;4963;51.444;6.528;2022-11-24T01:25:49;17.07;;;3.20;;
9848;SDS011;4963;51.444;6.528;2022-11-24T01:28:16;11.97;;;2.90;;
9848;SDS011;4963;51.444;6.528;2022-11-24T01:30:44;17.87;;;3.10;;
9848;SDS011;4963;51.444;6.528;2022-11-24T01:33:12;12.70;;;3.10;;
9848;SDS011;4963;51.444;6.528;2022-11-24T01:35:38;12.17;;;3.17;;
9848;SDS011;4963;51.444;6.528;2022-11-24T01:38:05;15.27;;;3.13;;
9848;SDS011;4963;51.444;6.528;2022-11-24T01:40:32;13.37;;;3.10;;
9848;SDS011;4963;51.444;6.528;2022-11-24T01:42:59;5.33;;;2.47;;
9848;SDS011;4963;51.444;6.528;2022-11-24T01:45:30;13.70;;;2.73;;
9848;SDS011;4963;51.444;6.528;2022-11-24T01:48:02;18.27;;;4.10;;
9848;SDS011;4963;51.444;6.528;2022-11-24T01:50:31;19.77;;;3.67;;
9848;SDS011;4963;51.444;6.528;2022-11-24T01:52:59;14.87;;;4.23;;
9848;SDS011;4963;51.444;6.528;2022-11-24T01:55:26;17.63;;;3.20;;
9848;SDS011;4963;51.444;6.528;2022-11-24T01:57:58;14.80;;;3.43;;
9848;SDS011;4963;51.444;6.528;2022-11-24T02:00:28;17.13;;;3.50;;
9848;SDS011;4963;51.444;6.528;2022-11-24T02:02:55;13.97;;;3.40;;
9848;SDS011;4963;51.444;6.528;2022-11-24T02:05:25;15.03;;;4.40;;
9848;SDS011;4963;51.444;6.528;2022-11-24T02:07:55;14.67;;;3.60;;
9848;SDS011;4963;51.444;6.528;2022-11-24T02:10:25;18.17;;;3.80;;
9848;SDS011;4963;51.444;6.528;2022-11-24T02:12:54;14.47;;;3.83;;
9848;SDS011;4963;51.444;6.528;2022-11-24T02:15:23;13.87;;;2.70;;
9848;SDS011;4963;51.444;6.528;2022-11-24T02:17:51;17.60;;;3.70;;
9848;SDS011;4963;51.444;6.528;2022-11-24T02:20:18;14.27;;;3.80;;
9848;SDS011;4963;51.444;6.528;2022-11-24T02:22:48;10.00;;;3.63;;
9848;SDS011;4963;51.444;6.528;2022-11-24T02:25:23;13.83;;;3.57;;
9848;SDS011;4963;51.444;6.528;2022-11-24T02:27:58;13.00;;;3.67;;
9848;SDS011;4963;51.444;6.528;2022-11-24T02:30:28;15.23;;;3.47;;
9848;SDS011;4963;51.444;6.528;2022-11-24T02:32:55;15.27;;;2.90;;
9848;SDS011;4963;51.444;6.528;2022-11-24T02:35:22;16.27;;;3.47;;
9848;SDS011;4963;51.444;6.528;2022-11-24T02:37:51;13.73;;;3.53;;
9848;SDS011;4963;51.444;6.528;2022-11-24T02:40:19;13.23;;;3.40;;
9848;SDS011;4963;51.444;6.528;2022-11-24T02:42:49;11.13;;;3.13;;
9848;SDS011;4963;51.444;6.528;2022-11-24T02:45:21;15.80;;;3.80;;
9848;SDS011;4963;51.444;6.528;2022-11-24T02:47:48;10.33;;;2.93;;
9848;SDS011;4963;51.444;6.528;2022-11-24T02:50:15;14.13;;;3.53;;
9848;SDS011;4963;51.444;6.528;2022-11-24T02:52:42;13.60;;;4.00;;
9848;SDS011;4963;51.444;6.528;2022-11-24T02:55:09;16.43;;;3.60;;
9848;SDS011;4963;51.444;6.528;2022-11-24T02:57:36;14.90;;;4.30;;
9848;SDS011;4963;51.444;6.528;2022-11-24T03:00:03;16.07;;;3.80;;
9848;SDS011;4963;51.444;6.528;2022-11-24T03:02:32;17.80;;;4.13;;
9848;SDS011;4963;51.444;6.528;2022-11-24T03:04:59;14.07;;;3.63;;
9848;SDS011;4963;51.444;6.528;2022-11-24T03:07:25;12.70;;;3.10;;
9848;SDS011;4963;51.444;6.528;2022-11-24T03:09:53;15.20;;;3.87;;
9848;SDS011;4963;51.444;6.528;2022-11-24T03:12:19;18.70;;;3.97;;
9848;SDS011;4963;51.444;6.528;2022-11-24T03:14:46;16.07;;;3.80;;
9848;SDS011;4963;51.444;6.528;2022-11-24T03:17:13;11.30;;;3.53;;
9848;SDS011;4963;51.444;6.528;2022-11-24T03:19:42;13.43;;;3.40;;
9848;SDS011;4963;51.444;6.528;2022-11-24T03:22:08;17.87;;;4.13;;
9848;SDS011;4963;51.444;6.528;2022-11-24T03:24:38;14.67;;;3.43;;
9848;SDS011;4963;51.444;6.528;2022-11-24T03:27:04;20.67;;;4.50;;
9848;SDS011;4963;51.444;6.528;2022-11-24T03:29:31;16.03;;;3.77;;
9848;SDS011;4963;51.444;6.528;2022-11-24T03:31:58;14.13;;;3.93;;
9848;SDS011;4963;51.444;6.528;2022-11-24T03:34:25;15.43;;;3.83;;
9848;SDS011;4963;51.444;6.528;2022-11-24T03:36:53;14.27;;;4.00;;
9848;SDS011;4963;51.444;6.528;2022-11-24T03:39:20;12.27;;;3.80;;
9848;SDS011;4963;51.444;6.528;2022-11-24T03:41:47;14.83;;;3.60;;
9848;SDS011;4963;51.444;6.528;2022-11-24T03:44:15;18.73;;;4.90;;
9848;SDS011;4963;51.444;6.528;2022-11-24T03:46:42;18.93;;;4.07;;
9848;SDS011;4963;51.444;6.528;2022-11-24T03:49:09;19.73;;;4.83;;
9848;SDS011;4963;51.444;6.528;2022-11-24T03:51:36;14.73;;;3.93;;
9848;SDS011;4963;51.444;6.528;2022-11-24T03:54:04;14.37;;;3.87;;
9848;SDS011;4963;51.444;6.528;2022-11-24T03:56:31;16.83;;;3.63;;
9848;SDS011;4963;51.444;6.528;2022-11-24T03:58:58;15.47;;;4.20;;
9848;SDS011;4963;51.444;6.528;2022-11-24T04:01:25;17.90;;;4.03;;
9848;SDS011;4963;51.444;6.528;2022-11-24T04:03:52;17.50;;;3.87;;
9848;SDS011;4963;51.444;6.528;2022-11-24T04:06:19;19.93;;;4.50;;
9848;SDS011;4963;51.444;6.528;2022-11-24T04:08:46;21.27;;;4.63;;
9848;SDS011;4963;51.444;6.528;2022-11-24T04:11:14;18.13;;;3.90;;
9848;SDS011;4963;51.444;6.528;2022-11-24T04:13:55;15.13;;;3.83;;
9848;SDS011;4963;51.444;6.528;2022-11-24T04:16:22;19.93;;;3.60;;
9848;SDS011;4963;51.444;6.528;2022-11-24T04:18:50;25.27;;;5.20;;
9848;SDS011;4963;51.444;6.528;2022-11-24T04:21:17;19.07;;;4.70;;
9848;SDS011;4963;51.444;6.528;2022-11-24T04:23:44;15.30;;;4.30;;
9848;SDS011;4963;51.444;6.528;2022-11-24T04:26:11;24.87;;;4.87;;
9848;SDS011;4963;51.444;6.528;2022-11-24T04:28:39;19.67;;;4.40;;
9848;SDS011;4963;51.444;6.528;2022-11-24T04:31:06;20.90;;;4.00;;
9848;SDS011;4963;51.444;6.528;2022-11-24T04:33:33;15.17;;;3.70;;
9848;SDS011;4963;51.444;6.528;2022-11-24T04:36:00;10.93;;;4.30;;
9848;SDS011;4963;51.444;6.528;2022-11-24T04:38:26;16.63;;;4.23;;
9848;SDS011;4963;51.444;6.528;2022-11-24T04:40:53;17.07;;;4.53;;
9848;SDS011;4963;51.444;6.528;2022-11-24T04:43:20;19.20;;;4.27;;
9848;SDS011;4963;51.444;6.528;2022-11-24T04:45:48;20.57;;;5.33;;
9848;SDS011;4963;51.444;6.528;2022-11-24T04:48:15;17.03;;;4.63;;
9848;SDS011;4963;51.444;6.528;2022-11-24T04:50:41;27.43;;;5.00;;
9848;SDS011;4963;51.444;6.528;2022-11-24T04:53:08;16.60;;;4.27;;
9848;SDS011;4963;51.444;6.528;2022-11-24T04:55:36;16.37;;;3.80;;
9848;SDS011;4963;51.444;6.528;2022-11-24T04:58:05;15.93;;;4.20;;
9848;SDS011;4963;51.444;6.528;2022-11-24T05:00:33;27.20;;;4.87;;
9848;SDS011;4963;51.444;6.528;2022-11-24T05:03:01;20.10;;;3.87;;
9848;SDS011;4963;51.444;6.528;2022-11-24T05:05:28;13.03;;;3.67;;
9848;SDS011;4963;51.444;6.528;2022-11-24T05:07:57;13.57;;;4.27;;
9848;SDS011;4963;51.444;6.528;2022-11-24T05:10:24;21.43;;;4.53;;
9848;SDS011;4963;51.444;6.528;2022-11-24T05:13:04;17.73;;;4.57;;
9848;SDS011;4963;51.444;6.528;2022-11-24T05:15:35;23.07;;;3.93;;
9848;SDS011;4963;51.444;6.528;2022-11-24T05:18:04;20.10;;;4.07;;
9848;SDS011;4963;51.444;6.528;2022-11-24T05:20:31;28.60;;;4.73;;
9848;SDS011;4963;51.444;6.528;2022-11-24T05:23:00;17.10;;;4.67;;
9848;SDS011;4963;51.444;6.528;2022-11-24T05:25:28;14.77;;;4.07;;
9848;SDS011;4963;51.444;6.528;2022-11-24T05:27:57;17.97;;;4.00;;
9848;SDS011;4963;51.444;6.528;2022-11-24T05:30:24;20.13;;;5.43;;
9848;SDS011;4963;51.444;6.528;2022-11-24T05:32:51;16.77;;;4.50;;
9848;SDS011;4963;51.444;6.528;2022-11-24T05:35:19;22.00;;;4.93;;
9848;SDS011;4963;51.444;6.528;2022-11-24T05:37:46;18.33;;;4.03;;
9848;SDS011;4963;51.444;6.528;2022-11-24T05:40:13;21.37;;;3.90;;
9848;SDS011;4963;51.444;6.528;2022-11-24T05:42:40;17.50;;;4.37;;
9848;SDS011;4963;51.444;6.528;2022-11-24T05:45:08;21.83;;;4.53;;
9848;SDS011;4963;51.444;6.528;2022-11-24T05:47:36;24.23;;;4.90;;
9848;SDS011;4963;51.444;6.528;2022-11-24T05:50:04;16.60;;;4.50;;
9848;SDS011;4963;51.444;6.528;2022-11-24T05:52:33;18.93;;;4.43;;
9848;SDS011;4963;51.444;6.528;2022-11-24T05:55:00;16.00;;;4.43;;
9848;SDS011;4963;51.444;6.528;2022-11-24T05:57:28;15.07;;;4.40;;
9848;SDS011;4963;51.444;6.528;2022-11-24T05:59:54;13.40;;;3.70;;
9848;SDS011;4963;51.444;6.528;2022-11-24T06:02:21;20.37;;;3.87;;
9848;SDS011;4963;51.444;6.528;2022-11-24T06:04:48;16.80;;;3.37;;
9848;SDS011;4963;51.444;6.528;2022-11-24T06:07:15;17.97;;;4.20;;
9848;SDS011;4963;51.444;6.528;2022-11-24T06:09:43;13.47;;;4.20;;
9848;SDS011;4963;51.444;6.528;2022-11-24T06:12:11;17.33;;;4.40;;
9848;SDS011;4963;51.444;6.528;2022-11-24T06:14:38;19.27;;;4.53;;
9848;SDS011;4963;51.444;6.528;2022-11-24T06:17:05;16.40;;;4.07;;
9848;SDS011;4963;51.444;6.528;2022-11-24T06:19:32;16.00;;;3.80;;
9848;SDS011;4963;51.444;6.528;2022-11-24T06:21:59;13.83;;;3.80;;
9848;SDS011;4963;51.444;6.528;2022-11-24T06:24:26;20.93;;;4.63;;
9848;SDS011;4963;51.444;6.528;2022-11-24T06:26:54;24.07;;;4.07;;
9848;SDS011;4963;51.444;6.528;2022-11-24T06:29:21;16.13;;;3.73;;
9848;SDS011;4963;51.444;6.528;2022-11-24T06:31:48;13.50;;;3.70;;
9848;SDS011;4963;51.444;6.528;2022-11-24T06:34:14;22.23;;;4.53;;
9848;SDS011;4963;51.444;6.528;2022-11-24T06:36:41;16.80;;;4.13;;
9848;SDS011;4963;51.444;6.528;2022-11-24T06:39:08;14.60;;;3.50;;
9848;SDS011;4963;51.444;6.528;2022-11-24T06:41:35;11.97;;;3.70;;
9848;SDS011;4963;51.444;6.528;2022-11-24T06:44:04;22.60;;;4.07;;
9848;SDS011;4963;51.444;6.528;2022-11-24T06:46:30;17.83;;;3.83;;
9848;SDS011;4963;51.444;6.528;2022-11-24T06:48:57;15.97;;;3.57;;
9848;SDS011;4963;51.444;6.528;2022-11-24T06:51:25;15.83;;;3.57;;
9848;SDS011;4963;51.444;6.528;2022-11-24T06:53:52;16.70;;;3.60;;
9848;SDS011;4963;51.444;6.528;2022-11-24T06:56:19;16.20;;;3.37;;
9848;SDS011;4963;51.444;6.528;2022-11-24T06:58:47;12.43;;;3.33;;
9848;SDS011;4963;51.444;6.528;2022-11-24T07:01:16;19.93;;;3.57;;
9848;SDS011;4963;51.444;6.528;2022-11-24T07:03:44;13.77;;;3.53;;
9848;SDS011;4963;51.444;6.528;2022-11-24T07:06:12;9.30;;;3.10;;
9848;SDS011;4963;51.444;6.528;2022-11-24T07:08:39;14.90;;;4.03;;
9848;SDS011;4963;51.444;6.528;2022-11-24T07:11:06;14.30;;;3.73;;
9848;SDS011;4963;51.444;6.528;2022-11-24T07:13:34;14.30;;;3.50;;
9848;SDS011;4963;51.444;6.528;2022-11-24T07:16:08;12.47;;;2.93;;
9848;SDS011;4963;51.444;6.528;2022-11-24T07:18:38;11.80;;;3.07;;
9848;SDS011;4963;51.444;6.528;2022-11-24T07:21:05;11.97;;;3.20;;
9848;SDS011;4963;51.444;6.528;2022-11-24T07:23:32;12.70;;;2.50;;
9848;SDS011;4963;51.444;6.528;2022-11-24T07:26:00;9.60;;;2.37;;
9848;SDS011;4963;51.444;6.528;2022-11-24T07:28:27;9.77;;;2.23;;
9848;SDS011;4963;51.444;6.528;2022-11-24T07:30:54;7.87;;;2.40;;
9848;SDS011;4963;51.444;6.528;2022-11-24T07:33:21;6.53;;;2.10;;
9848;SDS011;4963;51.444;6.528;2022-11-24T07:35:50;8.50;;;2.00;;
9848;SDS011;4963;51.444;6.528;2022-11-24T07:38:17;8.60;;;2.13;;
9848;SDS011;4963;51.444;6.528;2022-11-24T07:40:44;10.03;;;2.87;;
9848;SDS011;4963;51.444;6.528;2022-11-24T07:43:11;6.97;;;1.83;;
9848;SDS011;4963;51.444;6.528;2022-11-24T07:45:38;6.10;;;1.60;;
9848;SDS011;4963;51.444;6.528;2022-11-24T07:48:05;5.50;;;1.63;;
9848;SDS011;4963;51.444;6.528;2022-11-24T07:50:32;6.50;;;1.80;;
9848;SDS011;4963;51.444;6.528;2022-11-24T07:53:01;4.60;;;1.70;;
9848;SDS011;4963;51.444;6.528;2022-11-24T07:55:28;6.70;;;1.80;;
9848;SDS011;4963;51.444;6.528;2022-11-24T07:57:57;6.80;;;1.83;;
9848;SDS011;4963;51.444;6.528;2022-11-24T08:00:24;6.50;;;2.00;;
9848;SDS011;4963;51.444;6.528;2022-11-24T08:02:52;5.60;;;1.57;;
9848;SDS011;4963;51.444;6.528;2022-11-24T08:05:19;4.63;;;1.60;;
9848;SDS011;4963;51.444;6.528;2022-11-24T08:07:46;4.57;;;1.70;;
9848;SDS011;4963;51.444;6.528;2022-11-24T08:10:14;5.17;;;1.50;;
9848;SDS011;4963;51.444;6.528;2022-11-24T08:12:42;5.83;;;1.40;;
9848;SDS011;4963;51.444;6.528;2022-11-24T08:15:09;5.70;;;1.40;;
9848;SDS011;4963;51.444;6.528;2022-11-24T08:17:36;4.23;;;1.60;;
9848;SDS011;4963;51.444;6.528;2022-11-24T08:20:03;6.53;;;1.53;;
9848;SDS011;4963;51.444;6.528;2022-11-24T08:22:30;5.70;;;1.53;;
9848;SDS011;4963;51.444;6.528;2022-11-24T08:24:57;7.57;;;1.80;;
9848;SDS011;4963;51.444;6.528;2022-11-24T08:27:25;3.97;;;1.37;;
9848;SDS011;4963;51.444;6.528;2022-11-24T08:29:52;9.77;;;1.97;;
9848;SDS011;4963;51.444;6.528;2022-11-24T08:32:19;8.33;;;1.87;;
9848;SDS011;4963;51.444;6.528;2022-11-24T08:34:45;5.10;;;1.77;;
9848;SDS011;4963;51.444;6.528;2022-11-24T08:37:12;4.87;;;1.47;;
9848;SDS011;4963;51.444;6.528;2022-11-24T08:39:39;7.03;;;2.33;;
9848;SDS011;4963;51.444;6.528;2022-11-24T08:42:06;6.87;;;2.10;;
9848;SDS011;4963;51.444;6.528;2022-11-24T08:44:34;8.20;;;2.40;;
9848;SDS011;4963;51.444;6.528;2022-11-24T08:47:01;5.73;;;1.83;;
9848;SDS011;4963;51.444;6.528;2022-11-24T08:49:28;6.00;;;1.77;;
9848;SDS011;4963;51.444;6.528;2022-11-24T08:51:55;7.00;;;1.70;;
9848;SDS011;4963;51.444;6.528;2022-11-24T08:54:23;4.87;;;1.90;;
9848;SDS011;4963;51.444;6.528;2022-11-24T08:56:50;6.43;;;2.33;;
9848;SDS011;4963;51.444;6.528;2022-11-24T08:59:17;8.13;;;1.57;;
9848;SDS011;4963;51.444;6.528;2022-11-24T09:01:45;4.63;;;1.63;;
9848;SDS011;4963;51.444;6.528;2022-11-24T09:04:13;7.00;;;2.20;;
9848;SDS011;4963;51.444;6.528;2022-11-24T09:06:40;5.63;;;2.73;;
9848;SDS011;4963;51.444;6.528;2022-11-24T09:09:08;7.07;;;1.93;;
9848;SDS011;4963;51.444;6.528;2022-11-24T09:11:35;8.80;;;1.90;;
9848;SDS011;4963;51.444;6.528;2022-11-24T09:14:03;9.77;;;2.27;;
9848;SDS011;4963;51.444;6.528;2022-11-24T09:16:29;7.47;;;2.07;;
9848;SDS011;4963;51.444;6.528;2022-11-24T09:18:58;4.47;;;2.00;;
9848;SDS011;4963;51.444;6.528;2022-11-24T09:21:26;7.20;;;2.07;;
9848;SDS011;4963;51.444;6.528;2022-11-24T09:23:54;10.37;;;2.43;;
9848;SDS011;4963;51.444;6.528;2022-11-24T09:26:22;9.03;;;2.03;;
9848;SDS011;4963;51.444;6.528;2022-11-24T09:28:50;8.67;;;2.83;;
9848;SDS011;4963;51.444;6.528;2022-11-24T09:31:19;10.87;;;2.50;;
9848;SDS011;4963;51.444;6.528;2022-11-24T09:33:48;8.33;;;2.93;;
9848;SDS011;4963;51.444;6.528;2022-11-24T09:36:17;7.07;;;3.70;;
9848;SDS011;4963;51.444;6.528;2022-11-24T09:38:44;8.97;;;2.03;;
9848;SDS011;4963;51.444;6.528;2022-11-24T09:41:19;9.13;;;2.50;;
9848;SDS011;4963;51.444;6.528;2022-11-24T09:44:07;7.40;;;2.67;;
9848;SDS011;4963;51.444;6.528;2022-11-24T09:46:42;8.80;;;2.40;;
9848;SDS011;4963;51.444;6.528;2022-11-24T09:49:31;9.40;;;2.20;;
9848;SDS011;4963;51.444;6.528;2022-11-24T09:52:04;5.57;;;2.43;;
9848;SDS011;4963;51.444;6.528;2022-11-24T09:54:34;9.40;;;2.60;;
9848;SDS011;4963;51.444;6.528;2022-11-24T09:57:09;7.93;;;2.53;;
9848;SDS011;4963;51.444;6.528;2022-11-24T09:59:38;13.30;;;2.93;;
9848;SDS011;4963;51.444;6.528;2022-11-24T10:02:07;9.30;;;2.77;;
9848;SDS011;4963;51.444;6.528;2022-11-24T10:04:38;8.53;;;2.60;;
9848;SDS011;4963;51.444;6.528;2022-11-24T10:07:11;8.80;;;2.80;;
9848;SDS011;4963;51.444;6.528;2022-11-24T10:09:55;9.60;;;2.60;;
9848;SDS011;4963;51.444;6.528;2022-11-24T10:15:32;10.30;;;2.40;;
9848;SDS011;4963;51.444;6.528;2022-11-24T10:18:10;11.87;;;2.67;;
9848;SDS011;4963;51.444;6.528;2022-11-24T10:20:50;7.50;;;2.90;;
9848;SDS011;4963;51.444;6.528;2022-11-24T10:23:29;12.27;;;3.23;;
9848;SDS011;4963;51.444;6.528;2022-11-24T10:26:11;12.83;;;2.80;;
9848;SDS011;4963;51.444;6.528;2022-11-24T10:28:43;11.30;;;3.40;;
9848;SDS011;4963;51.444;6.528;2022-11-24T10:31:17;11.87;;;2.80;;
9848;SDS011;4963;51.444;6.528;2022-11-24T10:33:48;12.93;;;3.03;;
9848;SDS011;4963;51.444;6.528;2022-11-24T10:36:18;13.03;;;2.70;;
9848;SDS011;4963;51.444;6.528;2022-11-24T10:38:51;10.63;;;2.97;;
9848;SDS011;4963;51.444;6.528;2022-11-24T10:41:28;9.10;;;2.90;;
9848;SDS011;4963;51.444;6.528;2022-11-24T10:44:08;13.90;;;3.30;;
9848;SDS011;4963;51.444;6.528;2022-11-24T10:46:37;8.53;;;2.77;;
9848;SDS011;4963;51.444;6.528;2022-11-24T10:49:05;12.03;;;2.90;;
9848;SDS011;4963;51.444;6.528;2022-11-24T10:51:35;12.70;;;2.80;;
9848;SDS011;4963;51.444;6.528;2022-11-24T10:54:11;13.40;;;3.20;;
9848;SDS011;4963;51.444;6.528;2022-11-24T10:56:42;8.73;;;3.53;;
9848;SDS011;4963;51.444;6.528;2022-11-24T10:59:21;13.10;;;2.47;;
9848;SDS011;4963;51.444;6.528;2022-11-24T11:02:27;9.57;;;3.00;;
9848;SDS011;4963;51.444;6.528;2022-11-24T11:04:56;12.87;;;3.10;;
9848;SDS011;4963;51.444;6.528;2022-11-24T11:07:23;16.80;;;3.33;;
9848;SDS011;4963;51.444;6.528;2022-11-24T11:09:56;12.07;;;3.00;;
9848;SDS011;4963;51.444;6.528;2022-11-24T11:12:44;15.67;;;2.97;;
9848;SDS011;4963;51.444;6.528;2022-11-24T11:15:21;12.90;;;2.70;;
9848;SDS011;4963;51.444;6.528;2022-11-24T11:17:54;15.00;;;3.40;;
9848;SDS011;4963;51.444;6.528;2022-11-24T11:20:26;11.80;;;2.90;;
9848;SDS011;4963;51.444;6.528;2022-11-24T11:22:54;11.20;;;3.03;;
9848;SDS011;4963;51.444;6.528;2022-11-24T11:25:24;8.47;;;2.93;;
9848;SDS011;4963;51.444;6.528;2022-11-24T11:28:09;12.10;;;2.77;;
9848;SDS011;4963;51.444;6.528;2022-11-24T11:30:53;11.07;;;3.23;;
9848;SDS011;4963;51.444;6.528;2022-11-24T11:33:24;17.13;;;3.27;;
9848;SDS011;4963;51.444;6.528;2022-11-24T11:35:53;10.60;;;2.50;;
9848;SDS011;4963;51.444;6.528;2022-11-24T11:38:22;9.60;;;2.87;;
9848;SDS011;4963;51.444;6.528;2022-11-24T11:40:51;10.50;;;2.70;;
9848;SDS011;4963;51.444;6.528;2022-11-24T11:43:21;9.53;;;3.10;;
9848;SDS011;4963;51.444;6.528;2022-11-24T11:45:56;8.83;;;3.30;;
9848;SDS011;4963;51.444;6.528;2022-11-24T11:48:28;16.03;;;3.57;;
9848;SDS011;4963;51.444;6.528;2022-11-24T11:50:58;12.27;;;2.77;;
9848;SDS011;4963;51.444;6.528;2022-11-24T11:53:27;9.63;;;3.23;;
9848;SDS011;4963;51.444;6.528;2022-11-24T11:56:02;15.47;;;3.10;;
9848;SDS011;4963;51.444;6.528;2022-11-24T11:58:53;8.87;;;2.83;;
9848;SDS011;4963;51.444;6.528;2022-11-24T12:01:47;9.93;;;2.63;;
9848;SDS011;4963;51.444;6.528;2022-11-24T12:04:40;7.97;;;2.57;;
9848;SDS011;4963;51.444;6.528;2022-11-24T12:07:18;15.43;;;3.67;;
9848;SDS011;4963;51.444;6.528;2022-11-24T12:09:59;16.03;;;3.83;;
9848;SDS011;4963;51.444;6.528;2022-11-24T12:12:38;16.43;;;3.37;;
9848;SDS011;4963;51.444;6.528;2022-11-24T12:15:24;14.83;;;3.70;;
9848;SDS011;4963;51.444;6.528;2022-11-24T12:18:03;13.83;;;3.50;;
9848;SDS011;4963;51.444;6.528;2022-11-24T12:20:41;13.83;;;3.40;;
9848;SDS011;4963;51.444;6.528;2022-11-24T12:23:22;15.07;;;2.97;;
9848;SDS011;4963;51.444;6.528;2022-11-24T12:25:56;15.27;;;3.73;;
9848;SDS011;4963;51.444;6.528;2022-11-24T12:28:34;12.30;;;3.17;;
9848;SDS011;4963;51.444;6.528;2022-11-24T12:31:10;17.20;;;3.67;;
9848;SDS011;4963;51.444;6.528;2022-11-24T12:33:59;10.03;;;3.40;;
9848;SDS011;4963;51.444;6.528;2022-11-24T12:36:40;15.57;;;4.23;;
9848;SDS011;4963;51.444;6.528;2022-11-24T12:39:19;13.87;;;3.57;;
9848;SDS011;4963;51.444;6.528;2022-11-24T12:41:56;12.10;;;3.30;;
9848;SDS011;4963;51.444;6.528;2022-11-24T12:47:49;16.23;;;3.87;;
9848;SDS011;4963;51.444;6.528;2022-11-24T12:50:39;9.53;;;2.50;;
9848;SDS011;4963;51.444;6.528;2022-11-24T12:53:09;9.00;;;2.70;;
9848;SDS011;4963;51.444;6.528;2022-11-24T12:55:39;14.50;;;3.30;;
9848;SDS011;4963;51.444;6.528;2022-11-24T12:58:09;11.03;;;3.03;;
9848;SDS011;4963;51.444;6.528;2022-11-24T13:00:46;18.43;;;3.70;;
9848;SDS011;4963;51.444;6.528;2022-11-24T13:03:30;14.27;;;3.30;;
9848;SDS011;4963;51.444;6.528;2022-11-24T13:06:02;12.00;;;3.47;;
9848;SDS011;4963;51.444;6.528;2022-11-24T13:08:37;18.10;;;3.53;;
9848;SDS011;4963;51.444;6.528;2022-11-24T13:14:04;9.73;;;2.97;;
9848;SDS011;4963;51.444;6.528;2022-11-24T13:16:33;12.97;;;3.17;;
9848;SDS011;4963;51.444;6.528;2022-11-24T13:19:13;19.17;;;3.50;;
9848;SDS011;4963;51.444;6.528;2022-11-24T13:21:46;11.57;;;3.17;;
9848;SDS011;4963;51.444;6.528;2022-11-24T13:24:27;11.23;;;2.93;;
9848;SDS011;4963;51.444;6.528;2022-11-24T13:29:53;13.37;;;3.20;;
9848;SDS011;4963;51.444;6.528;2022-11-24T13:35:24;14.40;;;3.17;;
9848;SDS011;4963;51.444;6.528;2022-11-24T13:37:51;16.57;;;3.77;;
9848;SDS011;4963;51.444;6.528;2022-11-24T13:40:35;8.70;;;3.30;;
9848;SDS011;4963;51.444;6.528;2022-11-24T13:43:19;11.37;;;3.50;;
9848;SDS011;4963;51.444;6.528;2022-11-24T13:45:50;17.93;;;3.57;;
9848;SDS011;4963;51.444;6.528;2022-11-24T13:51:26;16.03;;;3.40;;
9848;SDS011;4963;51.444;6.528;2022-11-24T13:53:53;10.63;;;2.93;;
9848;SDS011;4963;51.444;6.528;2022-11-24T13:56:28;13.30;;;3.43;;
9848;SDS011;4963;51.444;6.528;2022-11-24T13:58:56;17.47;;;3.67;;
9848;SDS011;4963;51.444;6.528;2022-11-24T14:01:25;11.47;;;3.00;;
9848;SDS011;4963;51.444;6.528;2022-11-24T14:03:55;11.97;;;3.53;;
9848;SDS011;4963;51.444;6.528;2022-11-24T14:06:29;11.70;;;2.43;;
9848;SDS011;4963;51.444;6.528;2022-11-24T14:08:59;12.43;;;2.90;;
9848;SDS011;4963;51.444;6.528;2022-11-24T14:11:30;12.70;;;3.13;;
9848;SDS011;4963;51.444;6.528;2022-11-24T14:13:57;13.40;;;3.30;;
9848;SDS011;4963;51.444;6.528;2022-11-24T14:16:24;16.03;;;3.97;;
9848;SDS011;4963;51.444;6.528;2022-11-24T14:18:51;13.60;;;3.07;;
9848;SDS011;4963;51.444;6.528;2022-11-24T14:21:22;13.27;;;2.97;;
9848;SDS011;4963;51.444;6.528;2022-11-24T14:23:52;9.17;;;3.20;;
9848;SDS011;4963;51.444;6.528;2022-11-24T14:26:27;17.53;;;3.70;;
9848;SDS011;4963;51.444;6.528;2022-11-24T14:29:02;13.70;;;3.57;;
9848;SDS011;4963;51.444;6.528;2022-11-24T14:31:30;10.27;;;3.27;;
9848;SDS011;4963;51.444;6.528;2022-11-24T14:34:12;12.43;;;3.07;;
9848;SDS011;4963;51.444;6.528;2022-11-24T14:36:40;14.73;;;3.33;;
9848;SDS011;4963;51.444;6.528;2022-11-24T14:39:11;15.67;;;3.37;;
9848;SDS011;4963;51.444;6.528;2022-11-24T14:41:39;20.93;;;4.00;;
9848;SDS011;4963;51.444;6.528;2022-11-24T14:44:11;12.73;;;4.00;;
9848;SDS011;4963;51.444;6.528;2022-11-24T14:46:42;14.37;;;3.90;;
9848;SDS011;4963;51.444;6.528;2022-11-24T14:49:09;15.20;;;3.80;;
9848;SDS011;4963;51.444;6.528;2022-11-24T14:51:43;12.47;;;3.77;;
9848;SDS011;4963;51.444;6.528;2022-11-24T14:54:14;13.07;;;3.57;;
9848;SDS011;4963;51.444;6.528;2022-11-24T14:56:54;16.53;;;3.97;;
9848;SDS011;4963;51.444;6.528;2022-11-24T14:59:24;9.37;;;3.47;;
9848;SDS011;4963;51.444;6.528;2022-11-24T15:01:52;12.57;;;4.30;;
9848;SDS011;4963;51.444;6.528;2022-11-24T15:04:19;16.83;;;4.33;;
9848;SDS011;4963;51.444;6.528;2022-11-24T15:06:48;11.63;;;3.33;;
9848;SDS011;4963;51.444;6.528;2022-11-24T15:09:28;13.63;;;3.80;;
9848;SDS011;4963;51.444;6.528;2022-11-24T15:12:02;14.70;;;3.90;;
9848;SDS011;4963;51.444;6.528;2022-11-24T15:14:33;14.63;;;4.13;;
9848;SDS011;4963;51.444;6.528;2022-11-24T15:17:14;12.80;;;3.67;;
9848;SDS011;4963;51.444;6.528;2022-11-24T15:19:43;16.57;;;3.83;;
9848;SDS011;4963;51.444;6.528;2022-11-24T15:22:26;15.60;;;4.33;;
9848;SDS011;4963;51.444;6.528;2022-11-24T15:27:57;9.47;;;3.47;;
9848;SDS011;4963;51.444;6.528;2022-11-24T15:30:25;14.63;;;3.83;;
9848;SDS011;4963;51.444;6.528;2022-11-24T15:32:52;17.90;;;4.20;;
9848;SDS011;4963;51.444;6.528;2022-11-24T15:35:21;12.13;;;4.80;;
9848;SDS011;4963;51.444;6.528;2022-11-24T15:37:48;12.83;;;4.03;;
9848;SDS011;4963;51.444;6.528;2022-11-24T15:40:15;10.60;;;3.80;;
9848;SDS011;4963;51.444;6.528;2022-11-24T15:42:43;18.33;;;5.17;;
9848;SDS011;4963;51.444;6.528;2022-11-24T15:45:15;8.70;;;3.53;;